KBBB/BBB METAR and TAF weather

Enter ICAO airport designator
Station Type Date Time Source
KBBB METAR 2021/01/27 14:15 UTC NOAA

KBBB 271415Z AUTO 00000KT 10SM OVC075 M12/M16 A3047 RMK AO2


Station Type Date Time Source
KBBB Decoded METAR 2021/01/27 14:15 UTC NOAA

Benson Municipal, MN, United States (KBBB) 45-19N 095-39W
Jan 27, 2021 - 09:15 AM EST / 2021.01.27 1415 UTC
Wind: Calm:0
Visibility: 10 mile(s):0
Sky conditions: overcast
Temperature: 10 F (-12 C)
Dew Point: 3 F (-16 C)
Relative Humidity: 72%
Pressure (altimeter): 30.47 in. Hg (1031 hPa)
ob: KBBB 271415Z AUTO 00000KT 10SM OVC075 M12/M16 A3047 RMK AO2
cycle: 14

Station Type Date Time Source
KBBB TAF UTC NOAA

Error!

Example: see airport list